Página principal
METAR-TAF:

METAR-TAF

Aeroportos :

Lançarote, Espanha

latitude: 28-57N, longitude: 013-36W, altura: 14 m

Observação actual do tempo

O boletim foi feito há 27 minutos, às 04:00 UTC
Vento 15 kt de norte com rajadas de 27 kt, variando entre noroeste e nor-nordeste
Temperatura 20°C
Humidade 73%
Pressão 1014 hPa
Visibilidade 10 km ou mais
sem nuvens abaixo de 1500 metros e sem cumulonimbus

METAR: GCRR 230400Z AUTO 35015G27KT 320V020 CAVOK 20/15 Q1014

Hora: 05:27 (04:27 UTC)

Previsão

O boletim foi feito há 2 horas e 27 minutos, às 02:00 UTC
Previsão válida de 23 às 03 UTC a 24 às 03 UTC
Vento 17 kt de norte
Visibilidade 10 km ou mais
Nuvens dispersasa uma altura de 2500 ft
Temporariamente
de 23 às 03 UTC a 24 às 03 UTC
Vento 18 kt de norte com rajadas de 38 kt

TAF: GCRR 230200Z 2303/2403 36017KT 9999 SCT025 TX27/2314Z TN19/2306Z TEMPO 2303/2403 36018G38KT

Observações e previsões do tempo de mais de 4000 aeroportos (mensagens METAR e TAF).

As estações disponíveis são os pontos amarelos e vermelhos sobre o mapa.

Mova o rato sobre o mapa para ver o nome da estação.

Depois clique no ponto para visualizar as observações e previsões meteorológicas.

Para alterar o mapa : clique nos botões verdes com uma cruz preta para aumentar o zoom; no botão verde com uma pitada de zoom; ou nas setas verdes para mapas adjacentes.


METAR-TAF: